createdAt,value
2017-11-11T00:02:17.220Z,66.40
2017-11-11T00:04:44.714Z,66.50
2017-11-11T00:07:12.170Z,66.50
2017-11-11T00:09:39.614Z,66.50
2017-11-11T00:12:07.857Z,66.40
2017-11-11T00:14:35.354Z,66.40
2017-11-11T00:17:03.577Z,66.40
2017-11-11T00:19:31.043Z,66.40
2017-11-11T00:21:58.510Z,66.30
2017-11-11T00:24:25.966Z,66.30
2017-11-11T00:26:53.514Z,66.00
2017-11-11T00:29:20.959Z,66.00
2017-11-11T00:31:48.422Z,66.00
2017-11-11T00:34:15.896Z,65.60
2017-11-11T00:36:43.386Z,65.90
2017-11-11T00:39:10.868Z,66.40
2017-11-11T00:41:38.339Z,66.80
2017-11-11T00:44:05.837Z,67.10
2017-11-11T00:46:33.299Z,67.30
2017-11-11T00:49:00.775Z,67.50
2017-11-11T00:51:28.481Z,67.50
2017-11-11T00:53:55.967Z,67.40
2017-11-11T00:56:23.440Z,67.30
2017-11-11T00:58:50.895Z,67.30
2017-11-11T01:01:18.371Z,67.30
2017-11-11T01:03:45.864Z,67.30
2017-11-11T01:06:13.315Z,66.90
2017-11-11T01:08:40.799Z,66.90
2017-11-11T01:11:08.276Z,67.10
2017-11-11T01:13:35.774Z,67.20
2017-11-11T01:16:04.006Z,67.50
2017-11-11T01:18:31.456Z,67.40
2017-11-11T01:20:59.068Z,67.50
2017-11-11T01:23:27.279Z,67.60
2017-11-11T01:25:54.818Z,67.50
2017-11-11T01:28:22.282Z,67.50
2017-11-11T01:30:49.754Z,67.50
2017-11-11T01:33:17.552Z,67.60
2017-11-11T01:35:45.037Z,67.60
2017-11-11T01:38:13.266Z,67.80
2017-11-11T01:40:40.745Z,67.80
2017-11-11T01:43:08.198Z,67.70
2017-11-11T01:45:35.680Z,67.70
2017-11-11T01:48:03.936Z,67.70
2017-11-11T01:50:31.390Z,67.70
2017-11-11T01:52:59.635Z,67.80
2017-11-11T01:55:27.196Z,67.90
2017-11-11T01:57:54.650Z,67.90
2017-11-11T02:00:22.101Z,68.10
2017-11-11T02:02:49.572Z,68.20
2017-11-11T02:05:17.057Z,68.30
2017-11-11T02:07:44.550Z,68.40
2017-11-11T02:10:12.021Z,68.30
2017-11-11T02:12:40.238Z,68.50
2017-11-11T02:15:07.715Z,68.50
2017-11-11T02:17:35.165Z,68.60
2017-11-11T02:20:02.653Z,68.50
2017-11-11T02:22:31.001Z,68.80
2017-11-11T02:24:58.474Z,68.70
2017-11-11T02:27:25.970Z,68.90
2017-11-11T02:29:53.450Z,68.90
2017-11-11T02:32:20.923Z,68.90
2017-11-11T02:34:48.384Z,69.10
2017-11-11T02:37:15.862Z,69.10
2017-11-11T02:39:43.311Z,69.20
2017-11-11T02:42:10.786Z,69.20
2017-11-11T02:44:38.237Z,69.30
2017-11-11T02:47:05.717Z,69.30
2017-11-11T02:49:33.176Z,69.50
2017-11-11T02:52:00.851Z,69.50
2017-11-11T02:54:29.089Z,69.70
2017-11-11T02:56:56.573Z,69.70
2017-11-11T02:59:24.031Z,69.70
2017-11-11T03:01:51.498Z,69.80
2017-11-11T03:04:18.948Z,69.90
2017-11-11T03:06:46.436Z,69.90
2017-11-11T03:09:13.894Z,69.90
2017-11-11T03:11:42.110Z,70.00
2017-11-11T03:14:09.578Z,70.00
2017-11-11T03:16:37.076Z,69.90
2017-11-11T03:19:05.308Z,70.00
2017-11-11T03:21:32.779Z,70.00
2017-11-11T03:24:00.247Z,70.00
2017-11-11T03:26:28.099Z,70.10
2017-11-11T03:28:56.343Z,70.10
2017-11-11T03:31:23.817Z,70.00
2017-11-11T03:33:51.300Z,70.10
2017-11-11T03:36:18.778Z,70.10
2017-11-11T03:38:46.264Z,70.20
2017-11-11T03:41:13.709Z,70.40
2017-11-11T03:43:41.924Z,70.30
2017-11-11T03:46:09.450Z,70.30
2017-11-11T03:48:36.902Z,70.30
2017-11-11T03:51:05.119Z,70.30
2017-11-11T03:53:32.591Z,70.20
2017-11-11T03:56:00.064Z,70.20
2017-11-11T03:58:27.677Z,70.30
2017-11-11T04:00:55.144Z,70.30
2017-11-11T04:03:22.632Z,70.40
2017-11-11T04:05:50.083Z,70.30
2017-11-11T04:08:17.541Z,70.30
2017-11-11T04:10:45.032Z,70.20
2017-11-11T04:13:13.256Z,70.20
2017-11-11T04:15:40.782Z,70.20
2017-11-11T04:18:09.021Z,70.10
2017-11-11T04:20:36.543Z,70.00
2017-11-11T04:23:03.995Z,70.00
2017-11-11T04:25:31.438Z,69.90
2017-11-11T04:27:58.937Z,69.90
2017-11-11T04:30:26.417Z,69.90
2017-11-11T04:32:53.881Z,69.90
2017-11-11T04:35:21.371Z,69.80
2017-11-11T04:37:48.871Z,69.70
2017-11-11T04:40:16.330Z,69.70
2017-11-11T04:42:43.779Z,69.70
2017-11-11T04:45:11.305Z,69.70
2017-11-11T04:47:38.787Z,69.80
2017-11-11T04:50:06.235Z,69.90
2017-11-11T04:52:33.798Z,69.80
2017-11-11T04:55:01.278Z,69.70
2017-11-11T04:57:29.506Z,69.70
2017-11-11T04:59:57.722Z,69.60
2017-11-11T05:02:25.208Z,69.60
2017-11-11T05:04:52.656Z,69.50
2017-11-11T05:07:20.103Z,69.60
2017-11-11T05:09:47.584Z,69.80
2017-11-11T05:12:15.338Z,69.80
2017-11-11T05:14:42.817Z,69.90
2017-11-11T05:17:10.294Z,69.80
2017-11-11T05:19:37.787Z,69.90
2017-11-11T05:22:05.243Z,69.90
2017-11-11T05:24:32.696Z,69.60
2017-11-11T05:27:00.171Z,69.90
2017-11-11T05:29:27.618Z,69.80
2017-11-11T05:31:55.103Z,69.80
2017-11-11T05:34:22.559Z,69.90
2017-11-11T05:36:50.052Z,69.80
2017-11-11T05:39:18.296Z,70.60
2017-11-11T05:41:45.794Z,69.70
2017-11-11T05:44:14.078Z,69.80
2017-11-11T05:46:42.320Z,69.80
2017-11-11T05:49:09.805Z,69.70
2017-11-11T05:51:38.028Z,69.90
2017-11-11T05:54:05.491Z,69.90
2017-11-11T05:56:32.979Z,69.90
2017-11-11T05:59:00.467Z,70.00
2017-11-11T06:01:27.913Z,70.00
2017-11-11T06:03:56.124Z,70.20
2017-11-11T06:06:23.663Z,71.00
2017-11-11T06:08:51.110Z,70.20
2017-11-11T06:11:18.606Z,70.40
2017-11-11T06:13:46.070Z,70.50
2017-11-11T06:16:13.585Z,70.50
2017-11-11T06:18:41.815Z,70.60
2017-11-11T06:21:09.303Z,70.60
2017-11-11T06:23:36.751Z,70.60
2017-11-11T06:26:05.117Z,70.60
2017-11-11T06:28:32.599Z,70.60
2017-11-11T06:31:00.832Z,70.70
2017-11-11T06:33:28.323Z,70.70
2017-11-11T06:35:55.799Z,70.80
2017-11-11T06:38:24.019Z,70.90
2017-11-11T06:40:51.495Z,70.90
2017-11-11T06:43:18.955Z,71.00
2017-11-11T06:45:46.448Z,71.90
2017-11-11T06:48:14.711Z,71.10
2017-11-11T06:50:42.146Z,71.00
2017-11-11T06:53:09.649Z,71.10
2017-11-11T06:55:37.867Z,71.10
2017-11-11T06:58:05.694Z,71.10
2017-11-11T07:00:33.183Z,71.00
2017-11-11T07:03:00.670Z,71.10
2017-11-11T07:05:28.153Z,71.20
2017-11-11T07:07:55.598Z,71.10
2017-11-11T07:10:23.083Z,71.10
2017-11-11T07:12:51.336Z,71.20
2017-11-11T07:15:18.788Z,71.10
2017-11-11T07:17:46.234Z,71.20
2017-11-11T07:20:13.719Z,71.20
2017-11-11T07:22:41.162Z,71.20
2017-11-11T07:25:08.658Z,71.30
2017-11-11T07:27:37.128Z,71.40
2017-11-11T07:30:06.268Z,71.30
2017-11-11T07:32:33.726Z,71.30
2017-11-11T07:35:01.229Z,71.60
2017-11-11T07:37:28.723Z,71.50
2017-11-11T07:39:56.176Z,71.50
2017-11-11T07:42:23.630Z,71.70
2017-11-11T07:44:51.115Z,71.60
2017-11-11T07:47:18.587Z,71.60
2017-11-11T07:49:46.074Z,72.30
2017-11-11T07:52:13.527Z,71.40
2017-11-11T07:54:41.012Z,71.30
2017-11-11T07:57:09.306Z,71.50
2017-11-11T07:59:37.800Z,71.40
2017-11-11T08:02:05.299Z,71.40
2017-11-11T08:04:32.756Z,71.60
2017-11-11T08:07:00.414Z,71.40
2017-11-11T08:09:27.938Z,71.50
2017-11-11T08:11:55.403Z,71.40
2017-11-11T08:14:22.916Z,71.50
2017-11-11T08:16:50.407Z,71.50
2017-11-11T08:19:18.100Z,71.50
2017-11-11T08:21:45.558Z,71.30
2017-11-11T08:24:13.074Z,71.30
2017-11-11T08:26:40.566Z,71.20
2017-11-11T08:29:08.032Z,71.20
2017-11-11T08:31:35.538Z,71.10
2017-11-11T08:34:04.138Z,71.20
2017-11-11T08:36:31.833Z,71.20
2017-11-11T08:38:59.374Z,71.10
2017-11-11T08:41:26.958Z,71.20
2017-11-11T08:43:54.599Z,71.10
2017-11-11T08:46:22.096Z,71.20
2017-11-11T08:48:49.646Z,71.00
2017-11-11T08:51:17.139Z,70.80
2017-11-11T08:53:44.632Z,70.90
2017-11-11T08:56:12.132Z,71.00
2017-11-11T08:58:39.644Z,71.00
2017-11-11T09:01:09.009Z,71.00
2017-11-11T09:03:36.494Z,71.00
2017-11-11T09:06:03.946Z,71.00
2017-11-11T09:08:31.426Z,71.30
2017-11-11T09:10:58.894Z,71.20
2017-11-11T09:13:26.344Z,71.10
2017-11-11T09:15:53.833Z,71.10
2017-11-11T09:18:21.348Z,71.10
2017-11-11T09:20:49.599Z,71.00
2017-11-11T09:23:17.102Z,71.00
2017-11-11T09:25:44.583Z,71.00
2017-11-11T09:28:12.122Z,70.80
2017-11-11T09:30:39.582Z,70.90
2017-11-11T09:33:07.068Z,71.00
2017-11-11T09:35:34.529Z,71.00
2017-11-11T09:38:02.291Z,71.00
2017-11-11T09:40:30.057Z,71.00
2017-11-11T09:42:57.578Z,70.90
2017-11-11T09:45:25.123Z,71.10
2017-11-11T09:47:53.485Z,70.90
2017-11-11T09:50:21.009Z,70.90
2017-11-11T09:52:48.878Z,70.70
2017-11-11T09:55:17.197Z,70.70
2017-11-11T09:57:45.557Z,70.70
2017-11-11T10:00:13.085Z,70.70
2017-11-11T10:02:41.889Z,70.70
2017-11-11T10:05:10.679Z,70.60
2017-11-11T10:07:38.670Z,70.50
2017-11-11T10:10:07.173Z,71.20
2017-11-11T10:12:34.796Z,70.40
2017-11-11T10:15:02.454Z,70.10
2017-11-11T10:17:31.693Z,70.10
2017-11-11T10:19:59.185Z,69.90
2017-11-11T10:22:27.019Z,69.90
2017-11-11T10:24:54.530Z,69.90
2017-11-11T10:27:22.056Z,69.60
2017-11-11T10:29:49.671Z,69.40
2017-11-11T10:32:17.421Z,69.10
2017-11-11T10:34:45.305Z,69.10
2017-11-11T10:37:12.969Z,69.10
2017-11-11T10:39:41.439Z,68.80
2017-11-11T10:42:08.910Z,68.80
2017-11-11T10:44:37.348Z,68.70
2017-11-11T10:47:04.885Z,68.60
2017-11-11T10:49:33.140Z,68.50
2017-11-11T10:52:01.381Z,68.60
2017-11-11T10:54:28.847Z,68.60
2017-11-11T10:56:57.109Z,69.40
2017-11-11T10:59:24.563Z,68.60
2017-11-11T11:01:52.054Z,68.60
2017-11-11T11:04:19.504Z,68.60
2017-11-11T11:06:46.963Z,68.70
2017-11-11T11:09:14.805Z,68.80
2017-11-11T11:11:42.286Z,68.60
